createdAt,value
2022-12-06T00:02:59.999Z,11.90
2022-12-06T00:08:05.379Z,12.27
2022-12-06T00:13:12.890Z,11.60
2022-12-06T00:18:14.598Z,13.00
2022-12-06T00:23:16.414Z,13.93
2022-12-06T00:28:18.258Z,13.33
2022-12-06T00:33:23.030Z,12.33
2022-12-06T00:38:25.545Z,12.13
2022-12-06T00:43:27.908Z,12.27
2022-12-06T00:48:29.821Z,11.50
2022-12-06T00:53:34.920Z,13.50
2022-12-06T00:58:43.444Z,11.37
2022-12-06T01:03:45.913Z,12.83
2022-12-06T01:08:47.821Z,12.53
2022-12-06T01:13:51.030Z,11.50
2022-12-06T01:18:55.723Z,13.43
2022-12-06T01:24:00.259Z,13.97
2022-12-06T01:29:06.862Z,13.13
2022-12-06T01:34:25.301Z,14.10
2022-12-06T01:39:55.115Z,13.60
2022-12-06T01:44:59.741Z,14.00
2022-12-06T01:50:29.333Z,13.77
2022-12-06T01:55:34.556Z,15.20
2022-12-06T02:00:42.481Z,14.33
2022-12-06T02:05:45.329Z,15.20
2022-12-06T02:10:47.148Z,14.17
2022-12-06T02:16:17.335Z,13.97
2022-12-06T02:21:42.948Z,15.33
2022-12-06T02:26:50.064Z,15.47
2022-12-06T02:31:57.076Z,13.47
2022-12-06T02:37:00.149Z,13.97
2022-12-06T02:42:20.708Z,13.70
2022-12-06T02:47:32.905Z,14.73
2022-12-06T02:52:38.321Z,12.47
2022-12-06T02:57:56.855Z,12.17
2022-12-06T03:03:27.325Z,13.10
2022-12-06T03:08:57.454Z,13.37
2022-12-06T03:14:06.521Z,11.93
2022-12-06T03:19:27.955Z,11.53
2022-12-06T03:24:41.787Z,10.17
2022-12-06T03:29:58.334Z,11.83
2022-12-06T03:35:11.808Z,9.87
2022-12-06T03:40:30.708Z,12.47
2022-12-06T03:45:46.698Z,11.70
2022-12-06T03:51:13.699Z,12.23
2022-12-06T03:56:15.997Z,11.80
2022-12-06T04:01:21.108Z,12.87
2022-12-06T04:06:25.690Z,11.60
2022-12-06T04:11:27.628Z,12.40
2022-12-06T04:16:50.855Z,14.90
2022-12-06T04:22:14.327Z,13.23
2022-12-06T04:33:19.597Z,11.83
2022-12-06T04:38:39.352Z,11.63
2022-12-06T04:43:43.759Z,12.43
2022-12-06T04:48:46.559Z,13.57
2022-12-06T04:53:58.890Z,13.60
2022-12-06T04:59:01.498Z,12.23
2022-12-06T05:04:03.654Z,12.97
2022-12-06T05:09:05.466Z,11.73
2022-12-06T05:14:07.421Z,13.33
2022-12-06T05:19:13.519Z,13.83
2022-12-06T05:24:15.294Z,15.77
2022-12-06T05:29:17.792Z,19.63
2022-12-06T05:34:22.290Z,17.50
2022-12-06T05:39:24.361Z,17.97
2022-12-06T05:44:36.078Z,19.27
2022-12-06T05:49:37.923Z,16.80
2022-12-06T05:54:39.690Z,15.33
2022-12-06T05:59:47.501Z,17.57
2022-12-06T06:04:49.354Z,16.77
2022-12-06T06:09:51.083Z,17.83
2022-12-06T06:15:01.455Z,14.97
2022-12-06T06:20:18.526Z,13.97
2022-12-06T06:25:20.351Z,14.80
2022-12-06T06:30:25.463Z,28.80
2022-12-06T06:35:27.499Z,22.03
2022-12-06T06:40:44.578Z,27.27
2022-12-06T06:46:12.749Z,18.43
2022-12-06T06:51:14.874Z,13.17
2022-12-06T06:56:17.062Z,25.40
2022-12-06T07:01:22.899Z,15.60
2022-12-06T07:06:26.632Z,14.10
2022-12-06T07:11:28.424Z,15.87
2022-12-06T07:21:52.379Z,15.87
2022-12-06T07:26:56.751Z,16.73
2022-12-06T07:31:59.177Z,15.53
2022-12-06T07:37:00.927Z,14.33
2022-12-06T07:42:28.756Z,18.80
2022-12-06T07:47:43.447Z,17.00
2022-12-06T07:52:47.143Z,14.73
2022-12-06T07:57:48.982Z,14.83
2022-12-06T08:02:51.044Z,14.90
2022-12-06T08:07:53.122Z,16.53
2022-12-06T08:12:55.122Z,16.23
2022-12-06T08:17:57.419Z,16.13
2022-12-06T08:22:59.070Z,15.03
2022-12-06T08:28:00.958Z,14.73
2022-12-06T08:33:05.797Z,17.57
2022-12-06T08:38:07.547Z,13.13
2022-12-06T08:43:17.807Z,13.60
2022-12-06T08:48:19.803Z,16.73
2022-12-06T08:53:21.572Z,13.80
2022-12-06T08:58:23.313Z,16.70
2022-12-06T09:03:26.358Z,16.53
2022-12-06T09:08:31.866Z,15.43
2022-12-06T09:13:38.012Z,15.13
2022-12-06T09:18:39.897Z,14.93
2022-12-06T09:23:41.947Z,15.60
2022-12-06T09:28:56.979Z,16.17
2022-12-06T09:33:58.741Z,15.83
2022-12-06T09:44:48.350Z,16.30
2022-12-06T09:50:12.520Z,18.70
2022-12-06T09:55:51.520Z,24.53
2022-12-06T10:01:40.847Z,18.43
2022-12-06T10:07:10.600Z,19.73
2022-12-06T10:12:37.572Z,17.80
2022-12-06T10:17:51.947Z,17.20
2022-12-06T10:23:09.037Z,17.13
2022-12-06T10:28:20.245Z,16.87
2022-12-06T10:33:22.045Z,23.23
2022-12-06T10:38:53.025Z,21.27
2022-12-06T10:43:58.632Z,25.40
2022-12-06T10:49:00.482Z,19.33
2022-12-06T10:54:18.017Z,21.57
2022-12-06T10:59:54.423Z,19.57
2022-12-06T11:05:02.757Z,15.07
2022-12-06T11:10:22.540Z,17.20
2022-12-06T11:15:35.642Z,14.80
2022-12-06T11:20:53.830Z,14.30
2022-12-06T11:26:18.960Z,13.00
2022-12-06T11:31:58.245Z,13.87
2022-12-06T11:37:02.025Z,15.63
2022-12-06T11:42:04.898Z,13.13
2022-12-06T11:52:57.053Z,11.53
2022-12-06T11:58:05.606Z,13.80
2022-12-06T12:03:29.933Z,12.07
2022-12-06T12:08:32.983Z,13.20
2022-12-06T12:13:58.729Z,11.20
2022-12-06T12:19:28.287Z,12.17
2022-12-06T12:25:18.078Z,11.53
2022-12-06T12:30:55.986Z,12.33
2022-12-06T12:36:52.704Z,10.57
2022-12-06T12:41:54.590Z,13.30
2022-12-06T12:47:04.069Z,12.93
2022-12-06T12:52:48.079Z,14.67
2022-12-06T12:58:14.606Z,14.00
2022-12-06T13:03:50.334Z,13.60
2022-12-06T13:08:49.306Z,11.83
2022-12-06T13:13:54.818Z,12.93
2022-12-06T13:18:58.429Z,12.13
2022-12-06T13:24:06.567Z,12.33
2022-12-06T13:29:53.635Z,11.63
2022-12-06T13:35:03.081Z,10.87
2022-12-06T13:40:06.067Z,9.63
2022-12-06T13:45:50.425Z,9.50
2022-12-06T13:51:33.078Z,8.30
2022-12-06T14:01:58.731Z,7.50
2022-12-06T14:12:10.534Z,6.90
2022-12-06T14:17:38.054Z,6.27
2022-12-06T14:22:38.578Z,8.13
2022-12-06T14:27:46.000Z,9.83
2022-12-06T14:32:54.412Z,8.07
2022-12-06T14:38:12.851Z,8.53
2022-12-06T14:43:19.774Z,8.40
2022-12-06T14:48:22.693Z,9.37
2022-12-06T14:53:34.111Z,9.30
2022-12-06T14:58:52.505Z,9.37
2022-12-06T15:03:58.623Z,10.70
2022-12-06T15:09:00.372Z,10.93
2022-12-06T15:14:12.628Z,10.57
2022-12-06T15:19:15.418Z,8.80
2022-12-06T15:24:20.355Z,8.80
2022-12-06T15:29:24.048Z,9.73
2022-12-06T15:34:41.354Z,9.17
2022-12-06T15:39:43.363Z,12.30
2022-12-06T15:44:49.163Z,9.73
2022-12-06T15:49:58.079Z,7.93
2022-12-06T15:55:05.821Z,7.47
2022-12-06T16:00:23.606Z,8.67
2022-12-06T16:05:25.665Z,6.80
2022-12-06T16:11:03.088Z,8.60
2022-12-06T16:15:58.646Z,7.90
2022-12-06T16:21:00.928Z,8.97
2022-12-06T16:26:06.061Z,9.00
2022-12-06T16:31:17.411Z,8.70
2022-12-06T16:36:22.075Z,9.77
2022-12-06T16:41:37.380Z,9.20
2022-12-06T16:46:42.761Z,9.90
2022-12-06T16:51:47.303Z,9.73
2022-12-06T16:56:49.307Z,10.20
2022-12-06T17:01:55.204Z,9.77
2022-12-06T17:06:57.268Z,10.23
2022-12-06T17:12:07.220Z,10.50
2022-12-06T17:17:14.302Z,10.03
2022-12-06T17:22:16.401Z,10.97
2022-12-06T17:27:20.194Z,9.60
2022-12-06T17:32:22.247Z,9.10
2022-12-06T17:37:44.666Z,9.43
2022-12-06T17:43:01.472Z,10.07
2022-12-06T17:48:03.252Z,10.53
2022-12-06T17:53:27.770Z,9.80
2022-12-06T17:58:33.773Z,10.73
2022-12-06T18:04:20.255Z,10.10
2022-12-06T18:09:33.709Z,10.40
2022-12-06T18:15:26.796Z,11.63
2022-12-06T18:20:54.112Z,10.07
2022-12-06T18:25:55.904Z,9.53
2022-12-06T18:30:58.082Z,8.90
2022-12-06T18:36:00.229Z,9.33
2022-12-06T18:53:13.667Z,10.27
2022-12-06T18:58:15.602Z,10.37
2022-12-06T19:03:17.878Z,9.17
2022-12-06T19:08:51.012Z,9.73
2022-12-06T19:13:55.956Z,9.83
2022-12-06T19:19:27.060Z,9.73
2022-12-06T19:24:29.966Z,10.70
2022-12-06T19:29:31.766Z,8.87
2022-12-06T19:34:39.478Z,12.07
2022-12-06T19:40:00.409Z,10.63
2022-12-06T19:45:07.886Z,11.70
2022-12-06T19:50:09.899Z,11.00
2022-12-06T19:55:47.263Z,11.70
2022-12-06T20:00:50.828Z,12.67
2022-12-06T20:06:34.981Z,11.83
2022-12-06T20:12:32.949Z,13.80
2022-12-06T20:17:39.087Z,13.13
2022-12-06T20:22:45.915Z,14.17
2022-12-06T20:27:52.070Z,13.83
2022-12-06T20:32:53.930Z,13.93
2022-12-06T20:37:55.933Z,13.93
2022-12-06T20:42:59.927Z,13.50
2022-12-06T20:48:01.633Z,16.27
2022-12-06T20:53:06.795Z,15.30
2022-12-06T20:58:08.545Z,14.80
2022-12-06T21:03:13.157Z,40.97
2022-12-06T21:08:18.584Z,20.80
2022-12-06T21:13:41.675Z,28.30
2022-12-06T21:19:06.768Z,26.10
2022-12-06T21:30:02.807Z,17.77
2022-12-06T21:35:37.057Z,17.43
2022-12-06T21:40:42.196Z,17.93
2022-12-06T21:45:43.967Z,20.23
2022-12-06T21:50:51.498Z,21.97
2022-12-06T21:56:39.476Z,20.97
2022-12-06T22:01:41.384Z,21.17
2022-12-06T22:07:08.318Z,21.87
2022-12-06T22:12:58.044Z,23.70
2022-12-06T22:18:11.308Z,26.13
2022-12-06T22:35:24.609Z,24.73
2022-12-06T22:40:37.771Z,24.30
2022-12-06T22:45:39.483Z,26.00
2022-12-06T22:50:41.251Z,25.53
2022-12-06T22:55:42.975Z,25.73
2022-12-06T23:00:47.403Z,26.60
2022-12-06T23:06:20.672Z,26.83
2022-12-06T23:11:39.269Z,27.53
2022-12-06T23:17:21.000Z,26.07
2022-12-06T23:22:22.837Z,25.97
2022-12-06T23:27:31.291Z,27.50
2022-12-06T23:32:45.463Z,26.97
2022-12-06T23:37:54.564Z,27.27
2022-12-06T23:42:56.543Z,27.97
2022-12-06T23:48:04.036Z,29.30
2022-12-06T23:53:05.853Z,29.53
2022-12-06T23:58:40.577Z,28.93
